aviador You're here:

GMMB Decoded Metar

BEN SLIMANE in MOROCCO
Report Time2018-01-16 21:00:00
UTC Time2018-01-16 21:09:57
Flight Rules unknown UNKNOWN
Wind030° at 07 kt
W.Decomp.*RWY 32: 2.2 kt HW 6.7 kt RCW
W.Rank030° ranks 15
Current wind is above 030° avg. (5.6)
VisibilityN/A
Phenomena:N/A
Clouds:N/A
Expected CloudBase > 400 ft AGL from Temp-Dew spread
CeilingNone
Temp10°C (ISA -4)
Dew Point09°C (94% RH)
AAT7.3°C
QNH1026 hPa
Density Alt-105 ft
Elevation626 ft
Report Wrong Elevation
Raw Report
METAR GMMB 162100Z AUTO 03007KT //// ////// 10/09 Q1026 NOSIG=

Extra information for GMMB:More info

Metar Taf Metar & Taf Last 4 Metars F.Rules Stats Wind Profile Meteogram Temp Stats Airport Information Weather charts Add Link Nearby VenuesMetar ALERT Operation Metar Decoded Social comments